WIDD/BTH METAR and TAF weather

Enter ICAO airport designator
Station Type Date Time Source
WIDD METAR 2019/06/16 20:30 UTC NOAA

WIDD 162030Z AUTO VRB02KT 9999NDV NCD 27/26 Q1011


Station Type Date Time Source
WIDD Decoded METAR 2019/06/16 20:30 UTC NOAA

Station name not available
Jun 16, 2019 - 04:30 PM EDT / 2019.06.16 2030 UTC
Wind: Variable at 2 MPH (2 KT):0
Temperature: 80 F (27 C)
Dew Point: 78 F (26 C)
Relative Humidity: 94%
Pressure (altimeter): 29.85 in. Hg (1011 hPa)
ob: WIDD 162030Z AUTO VRB02KT 9999NDV NCD 27/26 Q1011
cycle: 20

Station Type Date Time Source
WIDD TAF 2019/06/16 18:00 UTC NOAA

TAF WIDD 161700Z 1618/1718 00000KT 9999 FEW014 PROB30
TEMPO 1621/1701 -TSRA FEW014CB

Example: see airport list